Time;durP1;ratioP1;P1;durP2;ratioP2;P2;SDS_P1;SDS_P2;PMS_P1;PMS_P2;Temp;Humidity;BMP_temperature;BMP_pressure;BME280_temperature;BME280_humidity;BME280_pressure;Samples;Min_cycle;Max_cycle;Signal;HPM_P1;HPM_P2
2021/12/16 00:06:26;;;;;;;8.30;7.50;;;7.10;98.30;;;;;;5011556;28;20205;-86
2021/12/16 00:11:01;;;;;;;8.80;7.73;;;7.10;98.10;;;;;;5007302;28;20202;-86
2021/12/16 00:30:05;;;;;;;8.73;7.83;;;7.00;98.40;;;;;;5004264;28;20251;-87
2021/12/16 00:33:11;;;;;;;8.00;7.20;;;7.00;98.20;;;;;;5000815;28;20201;-87
2021/12/16 00:35:35;;;;;;;10.10;9.10;;;7.10;98.20;;;;;;5009356;28;20190;-87
2021/12/16 00:38:00;;;;;;;7.57;6.77;;;7.10;98.00;;;;;;5011650;28;20256;-87
2021/12/16 00:40:26;;;;;;;8.87;8.07;;;7.00;98.40;;;;;;5013168;28;20213;-87
2021/12/16 00:42:57;;;;;;;8.40;7.70;;;7.00;98.20;;;;;;5011947;28;20213;-87
2021/12/16 00:45:45;;;;;;;9.77;8.57;;;7.00;98.90;;;;;;5009580;28;20289;-86
2021/12/16 00:56:04;;;;;;;10.10;9.20;;;6.90;99.30;;;;;;5026017;28;20265;-87
2021/12/16 00:58:40;;;;;;;10.80;9.70;;;6.80;99.40;;;;;;5010705;28;20273;-87
2021/12/16 01:03:54;;;;;;;10.40;9.50;;;6.60;99.40;;;;;;5030650;28;20221;-86
2021/12/16 01:07:19;;;;;;;10.50;9.50;;;6.70;99.90;;;;;;5030523;28;20193;-87
2021/12/16 01:36:49;;;;;;;11.73;10.70;;;7.00;98.20;;;;;;4991985;28;20280;-87
2021/12/16 01:47:40;;;;;;;9.20;8.30;;;6.90;99.60;;;;;;5014653;28;20296;-87
2021/12/16 01:50:17;;;;;;;10.67;9.67;;;7.00;99.30;;;;;;5010863;28;20210;-87
2021/12/16 01:55:33;;;;;;;10.73;9.63;;;7.20;97.80;;;;;;5010552;28;20200;-87
2021/12/16 01:58:11;;;;;;;10.83;9.73;;;7.20;97.00;;;;;;5009138;28;20232;-87
2021/12/16 02:01:18;;;;;;;11.23;10.23;;;7.20;97.70;;;;;;5022517;28;20193;-87
2021/12/16 02:03:48;;;;;;;10.70;9.70;;;7.20;98.10;;;;;;5011026;28;20261;-87
2021/12/16 02:09:10;;;;;;;10.27;9.27;;;7.10;98.60;;;;;;5010261;28;20229;-87
2021/12/16 02:35:47;;;;;;;12.40;11.17;;;6.90;99.70;;;;;;5059952;28;20212;-88
2021/12/16 02:38:19;;;;;;;10.57;9.47;;;7.10;98.60;;;;;;5053491;28;20179;-87
2021/12/16 02:40:47;;;;;;;9.67;8.67;;;7.10;98.60;;;;;;5066623;28;20188;-87
2021/12/16 02:48:37;;;;;;;12.23;11.03;;;7.10;98.70;;;;;;5060708;28;20214;-87
2021/12/16 02:51:15;;;;;;;12.10;10.93;;;6.90;99.20;;;;;;5065260;28;20179;-87
2021/12/16 02:53:54;;;;;;;10.77;9.77;;;6.80;99.90;;;;;;5070463;28;20678;-88
2021/12/16 02:56:20;;;;;;;10.80;9.80;;;6.80;99.90;;;;;;5061302;28;20247;-87
2021/12/16 02:58:49;;;;;;;11.93;10.73;;;6.90;99.50;;;;;;5041392;28;20206;-87
2021/12/16 03:01:29;;;;;;;13.50;10.90;;;6.90;98.80;;;;;;5061898;28;20217;-88
2021/12/16 03:03:56;;;;;;;11.67;10.53;;;6.70;99.80;;;;;;5058217;28;20211;-87
2021/12/16 03:06:22;;;;;;;11.80;10.60;;;6.60;99.90;;;;;;5044073;28;20212;-87
2021/12/16 03:08:49;;;;;;;12.93;11.70;;;6.80;99.20;;;;;;5064554;28;20188;-88
2021/12/16 03:14:25;;;;;;;13.07;11.87;;;6.60;99.90;;;;;;4975548;28;20627;-87
2021/12/16 03:19:57;;;;;;;12.67;11.40;;;6.40;99.90;;;;;;5066391;28;20238;-87
2021/12/16 03:22:39;;;;;;;13.27;11.83;;;6.20;99.90;;;;;;5076099;28;20196;-87
2021/12/16 03:37:55;;;;;;;11.63;10.53;;;6.10;99.90;;;;;;5061389;28;20171;-86
2021/12/16 03:40:21;;;;;;;14.40;11.97;;;6.10;99.90;;;;;;5062499;28;20188;-86
2021/12/16 03:42:59;;;;;;;12.13;10.77;;;6.10;99.90;;;;;;5059299;28;20264;-86
2021/12/16 03:48:35;;;;;;;11.97;10.03;;;6.10;99.90;;;;;;5019797;28;20224;-86
2021/12/16 03:51:01;;;;;;;11.37;10.33;;;6.20;99.90;;;;;;5056252;28;20184;-85
2021/12/16 03:53:27;;;;;;;9.73;8.73;;;6.20;99.90;;;;;;5060307;28;20185;-86
2021/12/16 03:55:54;;;;;;;9.90;8.90;;;6.10;99.90;;;;;;5040561;28;20208;-87
2021/12/16 03:58:20;;;;;;;9.83;8.87;;;6.10;99.90;;;;;;5060154;28;20184;-87
2021/12/16 04:00:51;;;;;;;8.27;7.27;;;6.10;99.90;;;;;;5049606;28;20184;-86
2021/12/16 04:03:18;;;;;;;7.67;6.40;;;6.10;99.90;;;;;;5067766;28;20208;-86
2021/12/16 04:05:45;;;;;;;7.57;6.77;;;6.00;99.90;;;;;;5061322;28;20204;-87
2021/12/16 04:08:11;;;;;;;8.07;6.60;;;6.10;99.90;;;;;;5061307;28;20194;-87
2021/12/16 04:10:52;;;;;;;6.60;5.70;;;6.00;99.90;;;;;;5057576;28;20267;-86
2021/12/16 04:13:19;;;;;;;8.17;7.33;;;6.00;99.90;;;;;;5041179;28;20229;-86
2021/12/16 04:15:46;;;;;;;8.07;6.93;;;5.90;99.90;;;;;;5061548;28;20200;-86
2021/12/16 04:18:13;;;;;;;6.77;6.00;;;5.90;99.90;;;;;;5062736;28;20193;-86
2021/12/16 04:20:39;;;;;;;7.20;6.50;;;5.90;99.90;;;;;;5056323;28;20219;-87
2021/12/16 04:23:07;;;;;;;5.67;5.13;;;6.00;99.90;;;;;;5051701;28;20196;-86
2021/12/16 04:25:37;;;;;;;4.70;4.30;;;6.10;99.90;;;;;;5061119;28;20211;-86
2021/12/16 04:28:07;;;;;;;6.00;5.43;;;6.10;99.20;;;;;;5074017;28;20241;-86
2021/12/16 04:30:33;;;;;;;6.73;4.90;;;6.00;99.40;;;;;;5065813;28;20165;-87
2021/12/16 04:32:59;;;;;;;5.13;4.60;;;6.10;99.90;;;;;;5065078;28;20203;-86
2021/12/16 04:35:25;;;;;;;4.93;4.10;;;6.10;99.60;;;;;;5058712;28;20216;-86
2021/12/16 04:37:52;;;;;;;5.27;4.40;;;6.10;98.80;;;;;;5056526;28;20735;-87
2021/12/16 04:40:19;;;;;;;5.37;4.57;;;6.10;98.80;;;;;;5081595;28;20183;-86
2021/12/16 04:42:48;;;;;;;6.37;4.53;;;6.10;99.60;;;;;;5083091;28;20172;-86
2021/12/16 04:45:17;;;;;;;4.40;4.00;;;6.20;98.10;;;;;;5037662;28;20216;-86
2021/12/16 04:47:43;;;;;;;5.07;4.03;;;6.10;98.50;;;;;;5061574;28;20216;-86
2021/12/16 04:50:10;;;;;;;5.03;4.53;;;6.10;97.90;;;;;;5060087;28;20191;-86
2021/12/16 04:52:37;;;;;;;4.70;4.20;;;5.90;98.80;;;;;;5072635;28;20190;-86
2021/12/16 04:55:06;;;;;;;7.53;3.70;;;5.80;99.90;;;;;;5058517;28;20219;-86
2021/12/16 04:57:31;;;;;;;4.90;4.40;;;5.90;99.00;;;;;;5054765;28;20216;-85
2021/12/16 04:59:57;;;;;;;4.20;3.83;;;5.80;99.50;;;;;;5039072;28;20203;-86
2021/12/16 05:02:24;;;;;;;4.57;3.80;;;5.80;99.40;;;;;;5056989;28;20260;-86
2021/12/16 05:04:50;;;;;;;4.23;3.83;;;5.90;98.80;;;;;;5049867;28;20298;-86
2021/12/16 05:07:17;;;;;;;4.33;3.93;;;5.70;99.50;;;;;;5047676;28;20279;-86
2021/12/16 05:10:05;;;;;;;4.37;3.97;;;5.70;99.60;;;;;;5056203;28;20263;-86
2021/12/16 05:12:37;;;;;;;4.37;3.87;;;5.70;99.90;;;;;;5053298;28;20176;-86
2021/12/16 05:15:09;;;;;;;3.80;3.40;;;5.80;99.40;;;;;;5056773;28;20593;-86
2021/12/16 05:17:41;;;;;;;6.50;4.30;;;5.70;99.40;;;;;;5058382;28;20238;-86
2021/12/16 05:20:11;;;;;;;5.23;3.90;;;5.60;99.70;;;;;;5054022;28;20186;-86
2021/12/16 05:25:49;;;;;;;4.87;3.57;;;5.70;99.90;;;;;;5054535;28;20598;-86
2021/12/16 05:28:13;;;;;;;4.10;3.43;;;5.60;99.90;;;;;;5056173;28;20602;-86
2021/12/16 05:30:40;;;;;;;5.23;4.73;;;5.70;99.90;;;;;;5071579;28;20193;-86
2021/12/16 05:33:06;;;;;;;4.80;4.30;;;5.70;99.40;;;;;;5055360;28;20341;-86
2021/12/16 05:35:32;;;;;;;7.07;4.57;;;5.60;99.90;;;;;;5045920;28;20216;-86
2021/12/16 05:37:58;;;;;;;5.87;4.43;;;5.60;99.90;;;;;;5048383;28;20217;-86
2021/12/16 05:40:26;;;;;;;4.50;3.90;;;5.70;99.90;;;;;;5044195;28;20203;-87
2021/12/16 05:42:58;;;;;;;3.93;3.53;;;5.70;99.90;;;;;;5059402;28;20196;-86
2021/12/16 05:45:25;;;;;;;4.20;3.80;;;5.60;99.90;;;;;;5033655;28;20316;-86
2021/12/16 05:47:53;;;;;;;4.83;3.67;;;5.70;99.90;;;;;;5054169;28;20177;-86
2021/12/16 05:50:20;;;;;;;5.93;4.40;;;5.70;99.90;;;;;;5062980;28;20191;-86
2021/12/16 05:52:46;;;;;;;6.33;4.30;;;5.80;99.90;;;;;;5050011;28;20184;-86
2021/12/16 05:55:14;;;;;;;17.70;10.00;;;5.80;99.80;;;;;;5061179;28;20258;-86
2021/12/16 05:57:41;;;;;;;23.97;15.17;;;6.00;99.30;;;;;;5058816;28;20188;-86
2021/12/16 06:00:15;;;;;;;8.03;4.90;;;6.00;99.20;;;;;;5065169;28;20184;-87
2021/12/16 06:02:42;;;;;;;5.83;4.60;;;6.00;98.90;;;;;;5063164;28;20267;-87
2021/12/16 06:05:08;;;;;;;6.57;5.47;;;6.10;98.60;;;;;;5064250;28;20212;-87
2021/12/16 06:07:34;;;;;;;7.03;4.70;;;6.30;97.40;;;;;;5047465;28;20543;-87
2021/12/16 06:10:00;;;;;;;5.07;4.33;;;6.30;98.00;;;;;;5064406;28;20653;-87
2021/12/16 06:12:27;;;;;;;4.30;3.90;;;6.30;98.10;;;;;;5064559;28;20206;-87
2021/12/16 06:28:07;;;;;;;6.70;5.13;;;5.90;99.90;;;;;;5053152;28;20191;-87
2021/12/16 06:30:37;;;;;;;8.57;7.73;;;5.90;99.60;;;;;;5067462;28;20183;-87
2021/12/16 06:33:05;;;;;;;8.03;7.27;;;6.10;99.70;;;;;;5064754;28;20189;-87
2021/12/16 06:35:31;;;;;;;12.00;7.40;;;6.20;98.80;;;;;;5082688;28;20191;-87
2021/12/16 06:37:57;;;;;;;7.07;5.73;;;6.20;98.70;;;;;;5061966;28;20517;-87
2021/12/16 06:40:23;;;;;;;7.83;5.90;;;6.30;98.40;;;;;;5063834;28;20191;-87
2021/12/16 06:42:50;;;;;;;7.17;6.47;;;6.40;98.50;;;;;;5066524;28;20194;-87
2021/12/16 06:45:23;;;;;;;9.40;8.20;;;6.50;97.30;;;;;;5059297;28;20634;-87
2021/12/16 06:47:54;;;;;;;8.30;7.50;;;6.40;97.90;;;;;;5058983;28;20219;-87
2021/12/16 06:50:30;;;;;;;8.90;8.10;;;6.50;97.40;;;;;;5055420;28;20181;-87
2021/12/16 06:52:59;;;;;;;17.33;9.90;;;6.50;97.10;;;;;;5050789;28;20276;-87
2021/12/16 06:55:42;;;;;;;6.50;5.80;;;6.50;97.50;;;;;;5060962;28;20207;-87
2021/12/16 06:58:26;;;;;;;9.57;5.90;;;6.50;97.80;;;;;;5052960;28;20195;-87
2021/12/16 07:01:03;;;;;;;7.33;6.30;;;6.40;97.40;;;;;;5057206;28;20187;-88
2021/12/16 07:03:39;;;;;;;10.47;5.70;;;6.30;97.90;;;;;;5060237;28;20555;-87
2021/12/16 07:06:05;;;;;;;9.40;6.43;;;6.20;98.60;;;;;;5059414;28;20227;-87
2021/12/16 07:08:31;;;;;;;7.03;5.63;;;6.20;99.00;;;;;;5058689;28;20197;-87
2021/12/16 07:10:57;;;;;;;7.53;5.90;;;6.20;99.30;;;;;;5036495;28;20189;-87
2021/12/16 07:13:35;;;;;;;6.93;6.23;;;6.30;98.60;;;;;;5053055;28;20188;-87
2021/12/16 07:16:01;;;;;;;6.97;5.63;;;6.20;98.60;;;;;;5064593;28;20270;-87
2021/12/16 07:18:26;;;;;;;7.63;6.00;;;6.10;98.80;;;;;;5060768;28;20195;-87
2021/12/16 07:20:52;;;;;;;5.87;5.27;;;6.10;98.90;;;;;;5060360;28;20196;-87
2021/12/16 07:23:19;;;;;;;7.43;6.30;;;6.10;99.10;;;;;;5045830;28;20177;-86
2021/12/16 07:25:45;;;;;;;7.90;6.73;;;6.00;99.30;;;;;;5049794;28;20204;-86
2021/12/16 07:28:11;;;;;;;7.47;6.07;;;6.10;99.50;;;;;;5062960;28;20196;-87
2021/12/16 07:30:39;;;;;;;7.57;5.70;;;6.00;98.90;;;;;;5021534;28;20196;-87
2021/12/16 07:33:07;;;;;;;5.50;5.00;;;6.00;99.30;;;;;;5032226;28;20200;-87
2021/12/16 07:35:34;;;;;;;7.93;5.60;;;6.10;98.60;;;;;;5060430;28;20207;-88
2021/12/16 07:38:00;;;;;;;6.40;5.80;;;6.00;99.00;;;;;;5056541;28;20209;-87
2021/12/16 07:40:27;;;;;;;6.77;5.80;;;6.00;99.00;;;;;;5046962;28;20194;-87
2021/12/16 07:45:27;;;;;;;7.83;6.00;;;6.20;98.10;;;;;;5056793;28;20215;-88
2021/12/16 07:47:54;;;;;;;7.30;6.60;;;6.00;98.30;;;;;;5057270;28;20211;-87
2021/12/16 07:50:20;;;;;;;8.70;7.83;;;5.90;99.60;;;;;;5047001;28;20236;-87
2021/12/16 07:52:46;;;;;;;9.70;8.57;;;5.80;99.90;;;;;;5043604;28;20196;-87
2021/12/16 07:55:13;;;;;;;10.03;9.00;;;5.80;99.90;;;;;;5045669;28;20215;-87
2021/12/16 07:57:40;;;;;;;10.00;7.57;;;5.80;99.90;;;;;;5068581;28;20184;-87
2021/12/16 08:00:19;;;;;;;8.50;7.57;;;5.80;99.90;;;;;;5058540;28;20260;-87
2021/12/16 08:02:45;;;;;;;7.93;6.43;;;5.80;99.90;;;;;;5071845;28;20278;-87
2021/12/16 08:05:12;;;;;;;15.40;7.10;;;5.90;99.60;;;;;;5054953;28;20230;-86
2021/12/16 08:07:39;;;;;;;7.80;6.77;;;5.90;99.70;;;;;;5054159;28;20177;-86
2021/12/16 08:10:09;;;;;;;6.90;6.20;;;5.80;99.90;;;;;;5046359;28;20279;-86
2021/12/16 08:12:35;;;;;;;12.10;6.70;;;5.90;99.90;;;;;;5051930;28;20193;-87
2021/12/16 08:15:01;;;;;;;6.37;5.43;;;6.00;99.90;;;;;;5051033;28;20213;-86
2021/12/16 08:17:27;;;;;;;7.00;6.27;;;6.10;99.10;;;;;;5032626;28;20201;-86
2021/12/16 08:19:53;;;;;;;8.60;5.93;;;6.10;99.50;;;;;;5048286;28;20189;-86
2021/12/16 08:22:18;;;;;;;8.00;7.20;;;6.00;99.40;;;;;;5048629;28;20212;-87
2021/12/16 08:24:45;;;;;;;9.13;7.47;;;6.10;99.10;;;;;;5044760;28;20216;-87
2021/12/16 08:27:11;;;;;;;14.30;7.10;;;6.20;98.80;;;;;;5044062;28;20201;-86
2021/12/16 08:29:37;;;;;;;10.30;7.00;;;6.40;98.90;;;;;;5031413;28;20258;-86
2021/12/16 08:32:04;;;;;;;16.20;6.93;;;6.40;98.20;;;;;;5049127;28;20192;-85
2021/12/16 08:34:32;;;;;;;12.77;6.20;;;6.70;97.30;;;;;;5049766;28;20258;-87
2021/12/16 08:36:58;;;;;;;8.00;5.50;;;6.80;96.70;;;;;;5053758;28;20242;-88
2021/12/16 08:39:25;;;;;;;6.07;5.17;;;6.70;97.00;;;;;;5055381;28;20512;-86
2021/12/16 08:41:53;;;;;;;6.07;5.47;;;6.80;96.80;;;;;;5053558;28;20206;-87
2021/12/16 08:44:19;;;;;;;8.03;5.03;;;6.90;95.90;;;;;;5048666;28;20220;-87
2021/12/16 08:46:51;;;;;;;9.57;5.53;;;6.90;95.20;;;;;;5057446;28;20295;-87
2021/12/16 08:49:17;;;;;;;6.07;5.57;;;6.90;95.10;;;;;;5048121;28;20204;-87
2021/12/16 08:51:50;;;;;;;6.53;5.23;;;7.00;94.90;;;;;;5057049;28;20207;-87
2021/12/16 08:54:17;;;;;;;5.70;5.00;;;7.00;94.90;;;;;;5061810;28;20200;-87
2021/12/16 08:56:44;;;;;;;9.87;5.87;;;7.10;94.70;;;;;;5054464;28;20205;-87
2021/12/16 08:59:11;;;;;;;7.00;5.53;;;7.00;94.60;;;;;;5033413;28;20217;-87
2021/12/16 09:01:46;;;;;;;6.80;5.90;;;7.10;94.40;;;;;;5052729;28;20220;-87
2021/12/16 09:04:15;;;;;;;7.77;6.00;;;7.10;94.30;;;;;;5055027;28;20605;-87
2021/12/16 09:06:41;;;;;;;8.03;6.40;;;7.10;94.40;;;;;;5057956;28;20243;-87
2021/12/16 09:09:08;;;;;;;9.17;5.73;;;6.90;94.90;;;;;;5056411;28;20304;-86
2021/12/16 09:11:39;;;;;;;10.60;5.70;;;6.70;96.60;;;;;;5032383;28;20199;-87
2021/12/16 09:14:05;;;;;;;6.60;6.00;;;6.90;95.70;;;;;;5057082;28;20599;-89
2021/12/16 09:16:33;;;;;;;10.03;6.30;;;6.90;95.30;;;;;;5056104;28;20273;-87
2021/12/16 09:19:00;;;;;;;7.13;6.20;;;6.80;95.50;;;;;;5048455;28;20199;-87
2021/12/16 09:21:31;;;;;;;7.57;5.87;;;6.60;96.80;;;;;;5059467;28;20215;-87
2021/12/16 09:23:58;;;;;;;6.90;5.70;;;6.80;96.40;;;;;;5058645;28;20297;-87
2021/12/16 09:26:25;;;;;;;8.87;6.40;;;6.90;95.70;;;;;;5039427;28;20212;-87
2021/12/16 09:28:52;;;;;;;8.57;5.70;;;6.80;96.10;;;;;;5056578;28;20200;-87
2021/12/16 09:31:22;;;;;;;7.20;6.03;;;6.80;96.40;;;;;;5059071;28;20271;-88
2021/12/16 09:33:51;;;;;;;7.80;5.90;;;6.60;96.80;;;;;;5055512;28;20188;-87
2021/12/16 09:36:19;;;;;;;6.87;6.07;;;6.80;96.30;;;;;;5051208;28;20239;-89
2021/12/16 09:38:46;;;;;;;10.57;8.53;;;6.90;95.70;;;;;;5026096;28;20190;-86
2021/12/16 09:41:12;;;;;;;9.07;6.30;;;7.00;94.80;;;;;;5060365;28;20212;-86
2021/12/16 09:43:44;;;;;;;7.33;6.00;;;7.10;95.30;;;;;;5055983;28;20192;-87
2021/12/16 09:46:13;;;;;;;5.73;5.20;;;7.20;94.60;;;;;;5052133;28;20217;-87
2021/12/16 09:48:40;;;;;;;8.50;5.90;;;7.30;94.00;;;;;;5056732;28;20266;-88
2021/12/16 09:51:08;;;;;;;7.83;6.40;;;7.20;93.90;;;;;;5040806;28;20199;-88
2021/12/16 09:53:37;;;;;;;7.87;6.30;;;7.20;94.20;;;;;;5053492;28;20260;-88
2021/12/16 09:56:08;;;;;;;6.87;5.67;;;7.20;94.00;;;;;;5053494;28;20285;-89
2021/12/16 09:58:39;;;;;;;6.10;5.50;;;7.20;94.30;;;;;;5059814;28;20176;-88
2021/12/16 10:01:09;;;;;;;5.63;5.13;;;7.20;95.30;;;;;;5072930;28;20180;-88
2021/12/16 10:03:36;;;;;;;6.67;5.57;;;7.00;95.70;;;;;;5048122;28;20253;-89
2021/12/16 10:06:03;;;;;;;6.70;5.73;;;6.80;96.70;;;;;;5036993;28;20210;-89
2021/12/16 10:08:29;;;;;;;6.10;5.50;;;7.00;95.90;;;;;;5048780;28;20188;-88
2021/12/16 10:10:55;;;;;;;10.13;5.97;;;7.20;94.30;;;;;;5073657;28;20184;-88
2021/12/16 10:13:31;;;;;;;6.90;5.60;;;7.20;94.50;;;;;;5076316;28;20227;-87
2021/12/16 10:18:34;;;;;;;10.47;6.67;;;7.30;94.70;;;;;;5052899;28;20187;-88
2021/12/16 10:21:04;;;;;;;6.57;5.97;;;7.20;94.70;;;;;;5076310;28;20189;-89
2021/12/16 10:23:31;;;;;;;7.80;6.93;;;7.50;94.00;;;;;;5058120;28;20210;-89
2021/12/16 10:26:05;;;;;;;7.83;7.03;;;7.50;93.40;;;;;;5055878;28;20283;-88
2021/12/16 10:28:34;;;;;;;7.20;6.50;;;7.30;93.50;;;;;;5047479;28;20597;-89
2021/12/16 10:31:11;;;;;;;8.13;7.10;;;7.30;94.30;;;;;;5048112;28;20202;-87
2021/12/16 10:33:39;;;;;;;8.03;6.90;;;7.20;94.80;;;;;;5053687;28;20218;-88
2021/12/16 10:36:07;;;;;;;8.70;7.73;;;7.00;95.30;;;;;;5029035;28;20212;-89
2021/12/16 10:38:37;;;;;;;8.63;7.73;;;6.90;95.50;;;;;;5044928;28;20222;-89
2021/12/16 10:41:04;;;;;;;8.07;7.37;;;7.10;95.70;;;;;;5053408;28;20680;-89
2021/12/16 10:43:50;;;;;;;9.17;8.20;;;7.20;95.20;;;;;;5057049;28;20215;-89
2021/12/16 10:46:23;;;;;;;8.43;7.63;;;7.50;93.30;;;;;;5050726;28;20796;-89
2021/12/16 10:48:52;;;;;;;9.37;8.47;;;7.60;93.10;;;;;;5032803;28;20222;-89
2021/12/16 10:51:36;;;;;;;9.37;7.83;;;7.60;92.20;;;;;;5053244;28;20184;-89
2021/12/16 10:54:19;;;;;;;8.57;7.70;;;7.60;92.70;;;;;;5036394;28;20211;-89
2021/12/16 10:56:59;;;;;;;11.23;7.73;;;7.60;93.30;;;;;;5049763;28;20218;-89
2021/12/16 10:59:39;;;;;;;10.20;8.37;;;7.40;94.20;;;;;;5053223;28;20445;-88
2021/12/16 11:02:09;;;;;;;8.23;7.53;;;7.70;93.10;;;;;;5049319;28;20709;-88
2021/12/16 11:05:12;;;;;;;9.00;8.10;;;7.70;93.20;;;;;;5053065;28;20749;-89
2021/12/16 11:07:44;;;;;;;9.30;8.40;;;7.70;92.40;;;;;;5050445;28;20678;-88
2021/12/16 11:10:18;;;;;;;8.03;7.33;;;7.80;92.20;;;;;;5020875;28;20200;-89
2021/12/16 11:12:56;;;;;;;9.77;8.33;;;7.50;92.90;;;;;;5046439;28;20185;-88
2021/12/16 11:15:40;;;;;;;9.40;8.57;;;7.20;94.70;;;;;;5046436;28;20212;-88
2021/12/16 11:18:09;;;;;;;11.97;8.87;;;7.30;95.30;;;;;;5047045;28;20188;-89
2021/12/16 11:21:06;;;;;;;9.30;8.43;;;7.20;95.40;;;;;;5026935;28;20196;-88
2021/12/16 11:23:37;;;;;;;9.17;8.17;;;7.50;94.40;;;;;;5033574;28;20224;-88
2021/12/16 11:26:09;;;;;;;10.17;8.47;;;7.60;93.50;;;;;;5057301;28;20310;-88
2021/12/16 11:28:38;;;;;;;8.07;7.27;;;7.80;93.10;;;;;;5049389;28;20200;-89
2021/12/16 11:31:16;;;;;;;8.93;8.03;;;8.00;91.20;;;;;;5026029;28;20200;-88
2021/12/16 11:33:48;;;;;;;9.87;8.20;;;7.90;91.50;;;;;;5053355;28;20192;-88
2021/12/16 11:36:27;;;;;;;9.33;8.43;;;7.70;92.10;;;;;;5050763;28;20224;-89
2021/12/16 11:38:59;;;;;;;10.23;9.23;;;7.70;92.50;;;;;;5032717;28;20714;-88
2021/12/16 11:41:49;;;;;;;10.20;9.13;;;8.00;91.30;;;;;;5046941;28;20185;-89
2021/12/16 11:44:28;;;;;;;10.67;9.57;;;8.10;91.80;;;;;;5034498;28;20209;-88
2021/12/16 11:47:15;;;;;;;9.17;8.10;;;8.10;90.90;;;;;;5051125;28;20291;-88
2021/12/16 11:49:42;;;;;;;10.93;9.93;;;8.20;90.20;;;;;;5049039;28;20206;-88
2021/12/16 11:52:15;;;;;;;10.87;9.30;;;8.30;90.30;;;;;;5048918;28;20196;-89
2021/12/16 11:54:44;;;;;;;9.40;8.47;;;8.30;90.30;;;;;;5052741;28;20222;-88
2021/12/16 11:57:13;;;;;;;10.50;9.40;;;8.30;89.90;;;;;;5050005;28;20204;-89
2021/12/16 11:59:54;;;;;;;11.53;8.87;;;8.30;90.20;;;;;;5050088;28;20207;-88
2021/12/16 12:02:35;;;;;;;9.70;8.80;;;8.30;90.20;;;;;;5049178;28;20185;-88
2021/12/16 12:05:25;;;;;;;11.73;9.03;;;8.40;89.80;;;;;;5044345;28;20224;-89
2021/12/16 12:07:54;;;;;;;11.63;9.37;;;8.50;89.00;;;;;;5054733;28;20934;-88
2021/12/16 12:10:47;;;;;;;10.90;9.83;;;8.40;90.20;;;;;;5029606;28;20196;-87
2021/12/16 12:13:19;;;;;;;11.43;10.30;;;8.30;90.80;;;;;;5045126;28;20188;-88
2021/12/16 12:15:50;;;;;;;12.83;11.50;;;8.30;90.70;;;;;;5051760;28;20216;-88
2021/12/16 12:18:42;;;;;;;12.10;10.93;;;8.40;90.30;;;;;;5049470;28;20200;-88
2021/12/16 12:21:26;;;;;;;15.23;10.90;;;8.40;90.40;;;;;;5041715;28;20208;-89
2021/12/16 12:23:58;;;;;;;14.37;12.87;;;8.60;90.20;;;;;;5046014;28;20211;-89
2021/12/16 12:26:25;;;;;;;29.83;27.10;;;8.70;89.70;;;;;;5059103;28;20220;-89
2021/12/16 12:29:02;;;;;;;52.57;47.90;;;8.90;89.00;;;;;;5056272;28;20218;-90
2021/12/16 12:31:31;;;;;;;12.43;11.23;;;9.00;87.90;;;;;;5070581;28;20180;-88
2021/12/16 12:33:57;;;;;;;11.67;10.47;;;9.10;87.30;;;;;;5062226;28;20188;-88
2021/12/16 12:36:24;;;;;;;12.23;10.93;;;9.10;86.80;;;;;;5069332;28;20204;-88
2021/12/16 12:38:51;;;;;;;10.90;9.80;;;9.00;87.60;;;;;;5066966;28;20224;-89
2021/12/16 12:41:18;;;;;;;11.27;10.17;;;9.10;87.50;;;;;;5053611;28;20200;-89
2021/12/16 12:43:44;;;;;;;12.33;11.13;;;9.20;86.60;;;;;;5070000;28;20219;-88
2021/12/16 12:46:12;;;;;;;13.77;11.57;;;9.20;86.30;;;;;;5068346;28;20233;-89
2021/12/16 12:48:39;;;;;;;11.30;10.20;;;9.40;85.40;;;;;;5029315;28;20231;-89
2021/12/16 12:51:06;;;;;;;12.47;11.30;;;9.40;85.00;;;;;;5064012;28;20172;-88
2021/12/16 12:53:38;;;;;;;13.47;11.40;;;9.30;85.70;;;;;;5059291;28;20177;-87
2021/12/16 12:56:21;;;;;;;12.63;11.43;;;9.40;86.40;;;;;;5064812;28;20229;-89
2021/12/16 12:59:01;;;;;;;12.80;11.40;;;9.10;87.50;;;;;;5049574;28;20215;-89
2021/12/16 13:01:54;;;;;;;12.33;11.20;;;9.30;87.00;;;;;;5058677;28;20280;-88
2021/12/16 13:04:28;;;;;;;12.07;10.90;;;9.50;85.70;;;;;;5055117;28;20219;-88
2021/12/16 13:07:02;;;;;;;13.40;12.03;;;9.40;85.90;;;;;;5059123;28;20219;-89
2021/12/16 13:09:48;;;;;;;14.03;11.47;;;9.40;87.50;;;;;;5059869;28;20219;-89
2021/12/16 13:12:25;;;;;;;14.87;11.47;;;9.50;86.70;;;;;;5056821;28;20919;-89
2021/12/16 13:14:53;;;;;;;12.40;11.20;;;9.60;86.00;;;;;;5060066;28;20207;-89
2021/12/16 13:23:29;;;;;;;13.27;11.30;;;9.60;84.70;;;;;;5056803;28;20275;-89
2021/12/16 13:26:36;;;;;;;10.43;9.37;;;9.60;85.70;;;;;;5059220;28;20228;-89
2021/12/16 13:29:38;;;;;;;11.63;10.43;;;9.60;85.30;;;;;;5069701;28;20207;-89
2021/12/16 13:32:23;;;;;;;12.40;11.17;;;9.40;86.10;;;;;;5054076;28;20194;-89
2021/12/16 13:35:10;;;;;;;12.37;11.07;;;9.50;85.90;;;;;;5025704;28;20194;-89
2021/12/16 13:37:42;;;;;;;13.23;11.43;;;9.40;86.30;;;;;;5055434;28;20579;-89
2021/12/16 13:40:21;;;;;;;17.40;11.93;;;9.40;85.90;;;;;;5050762;28;20714;-88
2021/12/16 13:43:02;;;;;;;12.67;11.20;;;9.40;85.60;;;;;;5039909;28;20200;-88
2021/12/16 13:45:42;;;;;;;13.87;11.90;;;9.40;85.60;;;;;;5052388;28;20223;-87
2021/12/16 13:58:18;;;;;;;11.63;10.53;;;9.20;86.30;;;;;;5048973;28;20235;-89
2021/12/16 14:05:33;;;;;;;13.30;12.00;;;9.10;87.20;;;;;;5041864;28;20254;-88
2021/12/16 14:08:02;;;;;;;16.67;14.87;;;9.20;86.50;;;;;;5058682;28;20202;-89
2021/12/16 14:10:49;;;;;;;21.73;15.30;;;9.20;86.60;;;;;;5058570;28;20237;-88
2021/12/16 14:16:30;;;;;;;12.83;11.33;;;9.10;87.70;;;;;;5023262;28;20247;-89
2021/12/16 14:43:41;;;;;;;12.67;11.37;;;9.30;87.00;;;;;;5056706;28;20219;-88
2021/12/16 14:46:09;;;;;;;12.10;10.77;;;9.10;87.60;;;;;;5054371;28;20334;-88
2021/12/16 14:48:38;;;;;;;11.53;10.33;;;9.20;87.60;;;;;;5069127;28;20244;-87
2021/12/16 14:51:10;;;;;;;22.90;19.30;;;9.40;86.50;;;;;;5067807;28;20276;-89
2021/12/16 14:53:38;;;;;;;26.97;24.10;;;9.40;85.80;;;;;;5076744;28;20257;-87
2021/12/16 14:56:11;;;;;;;24.43;21.00;;;9.40;85.60;;;;;;5074937;28;20330;-88
2021/12/16 14:58:38;;;;;;;28.47;18.00;;;9.30;86.50;;;;;;5057642;28;20221;-88
2021/12/16 15:01:09;;;;;;;15.67;11.27;;;9.30;87.00;;;;;;5058037;28;20192;-88
2021/12/16 15:03:40;;;;;;;12.43;10.73;;;9.30;86.70;;;;;;5057886;28;20252;-88
2021/12/16 15:06:10;;;;;;;14.47;10.27;;;9.20;86.50;;;;;;5054722;28;20220;-89
2021/12/16 15:08:51;;;;;;;14.07;10.83;;;9.00;88.50;;;;;;5059345;28;20222;-89
2021/12/16 15:11:45;;;;;;;15.37;9.53;;;9.00;87.70;;;;;;5041875;28;20198;-89
2021/12/16 15:17:23;;;;;;;16.07;14.50;;;9.10;87.20;;;;;;5052794;28;20234;-90
2021/12/16 15:40:06;;;;;;;27.87;25.17;;;8.70;90.10;;;;;;5014803;28;20271;-90
2021/12/16 15:42:51;;;;;;;13.53;12.23;;;8.80;89.60;;;;;;5061256;28;20180;-89
2021/12/16 15:45:23;;;;;;;23.60;13.30;;;8.80;90.10;;;;;;5054153;28;20720;-90
2021/12/16 15:47:56;;;;;;;18.80;11.67;;;8.60;91.20;;;;;;5038334;28;20200;-90
2021/12/16 15:50:29;;;;;;;13.50;10.83;;;8.50;92.20;;;;;;5060301;28;20198;-90
2021/12/16 15:52:57;;;;;;;19.80;10.77;;;8.50;91.50;;;;;;5018831;28;20216;-89
2021/12/16 15:56:05;;;;;;;15.10;10.13;;;8.60;91.20;;;;;;5039567;28;20216;-90
2021/12/16 15:58:41;;;;;;;25.30;10.67;;;8.50;91.60;;;;;;4996769;28;20302;-89
2021/12/16 16:01:32;;;;;;;19.27;10.37;;;8.40;92.70;;;;;;4998927;28;20226;-90
2021/12/16 16:04:00;;;;;;;20.27;10.00;;;8.30;93.00;;;;;;5028950;28;20243;-89
2021/12/16 16:06:27;;;;;;;33.23;10.90;;;8.30;92.80;;;;;;5057868;28;20208;-90
2021/12/16 16:08:56;;;;;;;20.63;9.60;;;8.40;92.40;;;;;;5042429;28;20200;-90
2021/12/16 16:11:29;;;;;;;17.87;10.17;;;8.30;93.00;;;;;;5040748;28;20217;-89
2021/12/16 16:14:00;;;;;;;13.83;9.20;;;8.20;93.60;;;;;;5024500;28;20197;-90
2021/12/16 16:16:35;;;;;;;15.73;9.13;;;8.20;93.40;;;;;;5052022;28;20754;-89
2021/12/16 16:19:03;;;;;;;13.97;9.80;;;8.30;93.30;;;;;;5036769;28;20195;-89
2021/12/16 16:21:38;;;;;;;17.97;11.60;;;8.30;93.10;;;;;;5038600;28;20196;-89
2021/12/16 16:24:27;;;;;;;24.13;12.90;;;8.30;93.00;;;;;;5050317;28;20390;-89
2021/12/16 16:26:55;;;;;;;11.83;10.20;;;8.20;94.00;;;;;;5053735;28;20236;-89
2021/12/16 16:29:24;;;;;;;18.73;10.83;;;8.10;93.80;;;;;;5053144;28;20188;-86
2021/12/16 16:31:51;;;;;;;14.97;9.83;;;8.00;94.30;;;;;;5036355;28;20196;-89
2021/12/16 16:34:25;;;;;;;13.70;10.70;;;8.00;93.90;;;;;;5037423;28;20245;-89
2021/12/16 16:36:56;;;;;;;15.20;12.73;;;8.10;93.30;;;;;;5053572;28;20298;-89
2021/12/16 16:39:29;;;;;;;14.63;10.90;;;8.10;93.30;;;;;;5052832;28;20188;-89
2021/12/16 16:41:59;;;;;;;26.53;14.37;;;8.10;93.70;;;;;;5057253;28;20203;-89
2021/12/16 16:44:27;;;;;;;13.97;10.53;;;8.20;93.30;;;;;;5053228;28;20646;-89
2021/12/16 16:46:59;;;;;;;14.43;10.57;;;8.10;93.30;;;;;;5053003;28;20218;-89
2021/12/16 16:49:34;;;;;;;18.33;11.63;;;8.10;93.60;;;;;;5054895;28;20189;-89
2021/12/16 16:52:04;;;;;;;11.33;10.17;;;7.90;94.30;;;;;;5054489;28;20188;-89
2021/12/16 16:54:37;;;;;;;20.40;10.57;;;7.80;94.90;;;;;;5057078;28;20253;-89